createdAt,value
2022-09-28T00:00:33.159Z,5.85
2022-09-28T00:05:34.999Z,7.15
2022-09-28T00:10:36.715Z,8.35
2022-09-28T00:15:38.266Z,8.30
2022-09-28T00:20:39.814Z,10.23
2022-09-28T00:25:41.351Z,8.35
2022-09-28T00:30:42.919Z,9.57
2022-09-28T00:35:44.596Z,6.60
2022-09-28T00:40:46.194Z,7.40
2022-09-28T00:46:06.724Z,7.05
2022-09-28T00:51:12.331Z,7.15
2022-09-28T00:56:19.221Z,8.93
2022-09-28T01:01:21.695Z,6.55
2022-09-28T01:06:28.178Z,8.30
2022-09-28T01:11:32.868Z,7.28
2022-09-28T01:16:58.486Z,7.60
2022-09-28T01:22:22.982Z,9.48
2022-09-28T01:27:45.173Z,8.35
2022-09-28T01:32:51.537Z,9.25
2022-09-28T01:38:01.734Z,7.53
2022-09-28T01:43:26.642Z,8.00
2022-09-28T01:48:37.938Z,9.65
2022-09-28T01:53:44.825Z,9.65
2022-09-28T01:58:51.538Z,8.38
2022-09-28T02:04:03.261Z,9.88
2022-09-28T02:09:11.617Z,13.70
2022-09-28T02:14:17.392Z,9.33
2022-09-28T02:19:27.815Z,11.50
2022-09-28T02:25:12.985Z,9.80
2022-09-28T02:30:14.710Z,9.30
2022-09-28T02:35:19.084Z,73.57
2022-09-28T02:40:24.090Z,31.77
2022-09-28T02:45:34.461Z,26.35
2022-09-28T02:51:06.152Z,21.65
2022-09-28T02:56:26.695Z,15.02
2022-09-28T03:02:01.546Z,13.40
2022-09-28T03:07:23.521Z,10.23
2022-09-28T03:12:29.323Z,10.23
2022-09-28T03:17:30.884Z,8.75
2022-09-28T03:22:32.382Z,8.00
2022-09-28T03:27:34.146Z,9.10
2022-09-28T03:32:35.867Z,6.88
2022-09-28T03:37:38.140Z,9.80
2022-09-28T03:42:40.218Z,8.52
2022-09-28T03:47:46.167Z,7.57
2022-09-28T03:52:47.690Z,7.72
2022-09-28T03:57:56.143Z,10.32
2022-09-28T04:02:57.682Z,8.20
2022-09-28T04:07:59.331Z,8.13
2022-09-28T04:13:00.905Z,8.10
2022-09-28T04:18:02.469Z,9.65
2022-09-28T04:23:04.013Z,8.13
2022-09-28T04:28:24.037Z,7.38
2022-09-28T04:33:25.650Z,7.55
2022-09-28T04:38:48.731Z,12.10
2022-09-28T04:43:48.770Z,8.13
2022-09-28T04:48:51.527Z,8.23
2022-09-28T04:53:53.092Z,10.00
2022-09-28T04:58:54.644Z,8.50
2022-09-28T05:03:56.647Z,8.40
2022-09-28T05:08:58.259Z,6.95
2022-09-28T05:13:59.994Z,8.75
2022-09-28T05:19:01.605Z,11.05
2022-09-28T05:24:07.459Z,12.95
2022-09-28T05:29:09.112Z,8.25
2022-09-28T05:34:10.751Z,8.20
2022-09-28T05:39:12.397Z,8.02
2022-09-28T05:44:14.084Z,8.93
2022-09-28T05:49:15.660Z,9.70
2022-09-28T05:54:17.414Z,10.07
2022-09-28T05:59:19.138Z,9.00
2022-09-28T06:04:20.960Z,8.05
2022-09-28T06:09:25.911Z,7.00
2022-09-28T06:14:27.753Z,12.23
2022-09-28T06:19:29.514Z,6.65
2022-09-28T06:24:31.249Z,5.30
2022-09-28T06:29:32.910Z,5.55
2022-09-28T06:34:35.031Z,4.55
2022-09-28T06:39:36.577Z,5.68
2022-09-28T06:44:38.122Z,4.05
2022-09-28T06:49:39.666Z,5.75
2022-09-28T06:54:41.206Z,8.68
2022-09-28T06:59:42.872Z,5.95
2022-09-28T07:04:44.428Z,4.45
2022-09-28T07:09:50.233Z,5.05
2022-09-28T07:14:57.372Z,4.10
2022-09-28T07:20:03.179Z,5.13
2022-09-28T07:25:12.805Z,3.42
2022-09-28T07:30:14.700Z,4.45
2022-09-28T07:35:16.352Z,3.63
2022-09-28T07:40:36.511Z,7.20
2022-09-28T07:45:38.584Z,3.80
2022-09-28T07:50:40.247Z,3.78
2022-09-28T07:55:41.770Z,3.20
2022-09-28T08:00:45.463Z,3.50
2022-09-28T08:05:47.549Z,3.13
2022-09-28T08:10:50.987Z,2.67
2022-09-28T08:15:53.625Z,3.78
2022-09-28T08:21:27.565Z,3.38
2022-09-28T08:26:29.264Z,3.03
2022-09-28T08:31:31.239Z,3.65
2022-09-28T08:36:33.533Z,3.10
2022-09-28T08:42:04.174Z,5.35
2022-09-28T08:47:33.368Z,2.30
2022-09-28T08:52:40.101Z,2.30
2022-09-28T08:57:57.942Z,3.15
2022-09-28T09:03:03.065Z,2.83
2022-09-28T09:08:13.601Z,3.00
2022-09-28T09:13:38.040Z,2.22
2022-09-28T09:18:56.710Z,1.55
2022-09-28T09:24:10.744Z,2.53
2022-09-28T09:29:36.487Z,1.77
2022-09-28T09:35:04.289Z,1.60
2022-09-28T09:40:20.871Z,1.45
2022-09-28T09:45:55.995Z,1.73
2022-09-28T09:51:03.437Z,2.90
2022-09-28T09:56:17.068Z,1.30
2022-09-28T10:01:22.896Z,1.48
2022-09-28T10:06:33.761Z,0.90
2022-09-28T10:11:39.708Z,1.27
2022-09-28T10:16:43.055Z,0.70
2022-09-28T10:21:46.873Z,1.45
2022-09-28T10:26:53.103Z,2.97
2022-09-28T10:31:55.641Z,1.63
2022-09-28T10:37:01.243Z,1.67
2022-09-28T10:42:08.195Z,0.93
2022-09-28T10:47:16.084Z,1.13
2022-09-28T10:52:49.866Z,0.93
2022-09-28T10:57:51.581Z,1.58
2022-09-28T11:02:53.365Z,2.15
2022-09-28T11:07:57.053Z,2.72
2022-09-28T11:12:59.828Z,0.70
2022-09-28T11:18:25.325Z,0.98
2022-09-28T11:23:30.446Z,1.83
2022-09-28T11:28:36.010Z,1.15
2022-09-28T11:33:45.128Z,1.40
2022-09-28T11:44:18.390Z,1.40
2022-09-28T11:49:20.010Z,1.63
2022-09-28T11:54:53.708Z,2.17
2022-09-28T11:59:59.999Z,2.45
2022-09-28T12:05:18.391Z,1.52
2022-09-28T12:10:48.160Z,2.13
2022-09-28T12:16:23.054Z,5.35
2022-09-28T12:21:13.997Z,2.42
2022-09-28T12:26:28.511Z,1.63
2022-09-28T12:31:46.269Z,0.80
2022-09-28T12:37:22.966Z,1.23
2022-09-28T12:42:53.425Z,1.40
2022-09-28T12:48:57.207Z,4.00
2022-09-28T12:54:20.537Z,2.20
2022-09-28T12:59:31.033Z,2.55
2022-09-28T13:05:08.209Z,2.67
2022-09-28T13:10:23.656Z,1.73
2022-09-28T13:15:52.644Z,1.60
2022-09-28T13:26:15.061Z,2.40
2022-09-28T13:31:20.606Z,2.35
2022-09-28T13:36:36.578Z,1.85
2022-09-28T13:41:40.460Z,2.38
2022-09-28T13:47:12.730Z,2.63
2022-09-28T13:52:39.944Z,3.70
2022-09-28T13:57:57.392Z,2.20
2022-09-28T14:03:25.438Z,1.90
2022-09-28T14:08:33.645Z,5.75
2022-09-28T14:13:41.239Z,3.33
2022-09-28T14:18:46.320Z,4.22
2022-09-28T14:24:06.751Z,3.25
2022-09-28T14:29:28.832Z,5.07
2022-09-28T14:34:43.794Z,5.85
2022-09-28T14:40:05.259Z,3.42
2022-09-28T14:45:07.407Z,6.43
2022-09-28T14:50:28.161Z,6.43
2022-09-28T14:55:38.902Z,4.90
2022-09-28T15:00:44.588Z,9.25
2022-09-28T15:05:47.866Z,4.80
2022-09-28T15:10:50.501Z,5.95
2022-09-28T15:15:59.631Z,4.05
2022-09-28T15:26:08.436Z,3.30
2022-09-28T15:31:18.184Z,3.22
2022-09-28T15:36:26.599Z,3.83
2022-09-28T15:41:28.838Z,2.23
2022-09-28T15:46:30.423Z,3.17
2022-09-28T15:51:47.695Z,2.60
2022-09-28T15:56:55.323Z,3.25
2022-09-28T16:02:12.195Z,3.55
2022-09-28T16:07:13.722Z,4.18
2022-09-28T16:12:15.299Z,6.13
2022-09-28T16:17:32.388Z,5.55
2022-09-28T16:22:34.029Z,5.82
2022-09-28T16:27:42.785Z,6.78
2022-09-28T16:32:57.984Z,5.82
2022-09-28T16:38:12.362Z,5.65
2022-09-28T16:43:36.363Z,8.13
2022-09-28T16:48:51.892Z,10.20
2022-09-28T16:54:12.369Z,9.85
2022-09-28T16:59:14.106Z,11.25
2022-09-28T17:04:15.744Z,9.32
2022-09-28T17:09:17.402Z,8.70
2022-09-28T17:14:18.984Z,8.23
2022-09-28T17:19:21.774Z,6.78
2022-09-28T17:24:23.394Z,10.02
2022-09-28T17:29:25.008Z,10.05
2022-09-28T17:34:26.687Z,11.15
2022-09-28T17:39:28.408Z,10.52
2022-09-28T17:44:29.968Z,10.30
2022-09-28T17:49:31.660Z,10.48
2022-09-28T17:54:33.872Z,8.77
2022-09-28T17:59:35.399Z,9.70
2022-09-28T18:04:51.362Z,12.77
2022-09-28T18:09:56.788Z,14.48
2022-09-28T18:14:58.376Z,12.98
2022-09-28T18:20:00.008Z,14.45
2022-09-28T18:25:01.892Z,13.82
2022-09-28T18:30:05.225Z,14.10
2022-09-28T18:35:08.842Z,12.68
2022-09-28T18:40:13.009Z,12.77
2022-09-28T18:45:17.818Z,11.18
2022-09-28T18:50:19.432Z,9.27
2022-09-28T18:55:21.045Z,10.32
2022-09-28T19:00:22.615Z,9.35
2022-09-28T19:05:24.232Z,9.23
2022-09-28T19:10:25.848Z,18.15
2022-09-28T19:15:27.448Z,16.63
2022-09-28T19:20:29.056Z,11.68
2022-09-28T19:25:30.585Z,15.18
2022-09-28T19:30:32.193Z,15.23
2022-09-28T19:35:33.716Z,26.80
2022-09-28T19:40:37.247Z,39.15
2022-09-28T19:45:39.792Z,94.05
2022-09-28T19:50:41.681Z,46.50
2022-09-28T19:55:43.233Z,25.88
2022-09-28T20:00:44.807Z,21.15
2022-09-28T20:05:46.921Z,16.42
2022-09-28T20:10:51.169Z,13.55
2022-09-28T20:15:52.846Z,12.48
2022-09-28T20:21:05.166Z,13.50
2022-09-28T20:26:09.334Z,14.43
2022-09-28T20:31:15.386Z,16.30
2022-09-28T20:36:22.264Z,16.52
2022-09-28T20:41:24.876Z,16.98
2022-09-28T20:46:26.854Z,12.52
2022-09-28T20:51:28.571Z,12.40
2022-09-28T20:56:38.100Z,18.10
2022-09-28T21:01:40.741Z,20.77
2022-09-28T21:06:43.083Z,31.77
2022-09-28T21:11:44.609Z,27.58
2022-09-28T21:16:46.146Z,23.42
2022-09-28T21:21:47.758Z,25.85
2022-09-28T21:26:49.301Z,21.42
2022-09-28T21:31:50.843Z,21.77
2022-09-28T21:36:52.650Z,29.75
2022-09-28T21:41:54.193Z,17.13
2022-09-28T21:46:55.777Z,17.50
2022-09-28T21:51:57.350Z,59.72
2022-09-28T21:57:00.592Z,58.58
2022-09-28T22:02:02.437Z,19.77
2022-09-28T22:07:04.018Z,17.15
2022-09-28T22:12:05.630Z,14.77
2022-09-28T22:17:07.174Z,11.52
2022-09-28T22:22:08.937Z,10.38
2022-09-28T22:27:10.557Z,10.68
2022-09-28T22:32:12.111Z,21.67
2022-09-28T22:37:13.680Z,10.07
2022-09-28T22:42:16.396Z,13.90
2022-09-28T22:47:17.932Z,9.77
2022-09-28T22:52:19.472Z,9.77
2022-09-28T22:57:21.730Z,8.25
2022-09-28T23:02:23.419Z,8.02
2022-09-28T23:07:26.257Z,7.53
2022-09-28T23:12:30.023Z,17.70
2022-09-28T23:17:31.572Z,10.02
2022-09-28T23:22:33.236Z,8.38
2022-09-28T23:27:34.799Z,14.77
2022-09-28T23:32:36.365Z,18.75
2022-09-28T23:37:38.137Z,19.02
2022-09-28T23:42:39.684Z,19.35
2022-09-28T23:47:41.255Z,11.52
2022-09-28T23:52:42.794Z,8.45
2022-09-28T23:57:44.374Z,7.75
